Corwith Cramer — WTF3319 — position and weather

sailwx.info

Track history (hours):
 
Tides and Currents Weather Stations Pressure Air Temp Water Temp Dewpoint Dewpoint Depression Visibility Wind Speed Wind Dir Waves Ship Positions

Oceanographic research ship Corwith Cramer (USA)

Ship's website: http://www.sea.edu/sea2000/AboutSEA2000/cramer.htm

Detailed information on ship capabilities available from University of Delaware's Ocean Information Center.

Owner: SEA EDUCATION ASSOCIATION, WOODS HOLE, MA. More information available from US FCC via Universal Licensing System and Coast Guard Vessel Documentation Center.

Last reported at 2017-Mar-28 13:11 UTC. Time now 2017-Mar-29 13:14 UTC.
Position N 26°45' W 080°03'.

Type: Sailing vessel. MMSI: 366724450.

Date/timePositionNaut miles runAvg speedWind from/ knotsBaromVisibWave heightAir tempDewpointWater temp
2017-Mar-28 13:11N 26°45' W 080°03'2 3.2
2017-Mar-28 12:31N 26°46' W 080°00'1 1.2
2017-Mar-28 11:21N 26°45' W 080°02'0 0.0
2017-Mar-28 10:30N 26°45' W 080°02'0 0.0
2017-Mar-28 09:33N 26°45' W 080°02'0 0.0
2017-Mar-28 08:33N 26°45' W 080°02'0 0.0
2017-Mar-28 07:33N 26°45' W 080°02'0 0.0
2017-Mar-28 06:12N 26°45' W 080°02'0 0.0
2017-Mar-28 05:18N 26°45' W 080°02'21 2.7
2017-Mar-27 21:25N 26°27' W 079°49'8 9.1
2017-Mar-27 20:33N 26°20' W 079°49'9 9.1
2017-Mar-27 19:33N 26°10' W 079°49'10 9.5
2017-Mar-27 18:33N 26°01' W 079°50'10 9.5
2017-Mar-27 17:33N 25°51' W 079°51'10 9.7
2017-Mar-27 16:33N 25°42' W 079°52'9 9.1
2017-Mar-27 15:33N 25°33' W 079°54'  
Track history (hours):
 
Tides and Currents Weather Stations Pressure Air Temp Water Temp Dewpoint Dewpoint Depression Visibility Wind Speed Wind Dir Waves Ship Positions

Oceanographic research ship Corwith Cramer (USA)

Ship's website: http://www.sea.edu/sea2000/AboutSEA2000/cramer.htm

Detailed information on ship capabilities available from University of Delaware's Ocean Information Center.

Owner: SEA EDUCATION ASSOCIATION, WOODS HOLE, MA. More information available from US FCC via Universal Licensing System and Coast Guard Vessel Documentation Center.

Last reported at 2017-Mar-28 13:11 UTC. Time now 2017-Mar-29 13:14 UTC.
Position N 26°45' W 080°03'.

Type: Sailing vessel. MMSI: 366724450.

Date/timePositionNaut miles runAvg speedWind from/ knotsBaromVisibWave heightAir tempDewpointWater temp
2017-Mar-28 13:11N 26°45' W 080°03'2 3.2
2017-Mar-28 12:31N 26°46' W 080°00'1 1.2
2017-Mar-28 11:21N 26°45' W 080°02'0 0.0
2017-Mar-28 10:30N 26°45' W 080°02'0 0.0
2017-Mar-28 09:33N 26°45' W 080°02'0 0.0
2017-Mar-28 08:33N 26°45' W 080°02'0 0.0
2017-Mar-28 07:33N 26°45' W 080°02'0 0.0
2017-Mar-28 06:12N 26°45' W 080°02'0 0.0
2017-Mar-28 05:18N 26°45' W 080°02'21 2.7
2017-Mar-27 21:25N 26°27' W 079°49'8 9.1
2017-Mar-27 20:33N 26°20' W 079°49'9 9.1
2017-Mar-27 19:33N 26°10' W 079°49'10 9.5
2017-Mar-27 18:33N 26°01' W 079°50'10 9.5
2017-Mar-27 17:33N 25°51' W 079°51'10 9.7
2017-Mar-27 16:33N 25°42' W 079°52'9 9.1
2017-Mar-27 15:33N 25°33' W 079°54'  

Dump ship's entire track history